Culver, Minnesota
Current Conditions -  °F | °C
As of 7:55 PM on Saturday 20 Dec 2014 (Local Time) from KDLH Reporting Station
Haze Haze  
Wind Chill: 22°   Ceiling: 900
Heat Index: 30°   Visibility: 6mi
Dew Point: 26°   Wind: 9mph
Humidity: 85%   Direction: 190°S
Pressure: 30.04"   Gusts: NA
Location:  46.8859°N, 92.4258°W
Report Text: KDLH 210155Z 19008KT 6SM BR OVC009 M01/M03 A3004 RMK AO2 SLP197 T10111033
Loading
Personal Weather Stations






























Interactive Weather Map New forecast layout! Learn more

10-Day Weather Forecast

Advertisements
Track Severe Weather on mobile